Time;durP1;ratioP1;P1;durP2;ratioP2;P2;SDS_P1;SDS_P2;PMS_P1;PMS_P2;Temp;Humidity;BMP_temperature;BMP_pressure;BME280_temperature;BME280_humidity;BME280_pressure;Samples;Min_cycle;Max_cycle;Signal;HPM_P1;HPM_P2
2022/08/19 00:00:44;;;;;;;22.47;20.07;;;;;;;16.83;100.00;101194.22;5043379;28;20033;-89
2022/08/19 00:03:09;;;;;;;23.10;20.70;;;;;;;16.87;100.00;101196.19;5040723;28;20039;-90
2022/08/19 00:05:34;;;;;;;22.47;20.10;;;;;;;16.83;100.00;101205.16;5043118;28;20060;-88
2022/08/19 00:08:00;;;;;;;23.07;20.40;;;;;;;16.80;100.00;101203.75;5057370;28;20052;-90
2022/08/19 00:10:25;;;;;;;24.30;20.40;;;;;;;16.80;100.00;101202.91;5042214;28;20052;-90
2022/08/19 00:12:51;;;;;;;23.23;20.73;;;;;;;16.78;100.00;101199.59;5042102;28;20131;-90
2022/08/19 00:15:19;;;;;;;22.07;19.20;;;;;;;16.70;100.00;101193.44;5041325;28;20464;-90
2022/08/19 00:17:45;;;;;;;22.27;19.97;;;;;;;16.76;100.00;101199.81;5042627;28;20059;-89
2022/08/19 00:20:16;;;;;;;21.33;18.30;;;;;;;16.69;100.00;101202.72;5042634;28;20496;-88
2022/08/19 00:22:42;;;;;;;22.47;19.00;;;;;;;16.68;100.00;101195.56;5041681;28;20052;-88
2022/08/19 00:25:07;;;;;;;20.20;17.47;;;;;;;16.66;100.00;101203.22;5056767;28;20098;-88
2022/08/19 00:27:33;;;;;;;18.77;16.57;;;;;;;16.75;100.00;101200.06;5042668;28;20037;-87
2022/08/19 00:29:59;;;;;;;22.93;20.40;;;;;;;16.70;100.00;101204.38;5040071;28;20135;-86
2022/08/19 00:32:25;;;;;;;23.90;21.37;;;;;;;16.63;100.00;101198.22;5042484;28;20107;-87
2022/08/19 00:34:52;;;;;;;23.17;20.67;;;;;;;16.64;100.00;101197.13;5041250;28;20040;-87
2022/08/19 00:37:19;;;;;;;25.60;22.90;;;;;;;16.64;100.00;101210.81;5041215;28;20047;-88
2022/08/19 00:39:44;;;;;;;24.13;21.47;;;;;;;16.63;100.00;101208.31;5041287;28;20033;-87
2022/08/19 00:42:10;;;;;;;24.57;21.33;;;;;;;16.63;100.00;101209.16;5042190;28;20041;-89
2022/08/19 00:44:35;;;;;;;25.40;22.77;;;;;;;16.64;100.00;101216.28;5040851;28;20048;-89
2022/08/19 00:47:01;;;;;;;23.97;20.93;;;;;;;16.66;100.00;101208.69;5041806;28;20048;-89
2022/08/19 00:49:40;;;;;;;24.07;21.57;;;;;;;16.62;100.00;101202.03;5041653;28;20040;-89
2022/08/19 00:52:16;;;;;;;23.13;20.73;;;;;;;16.62;100.00;101207.50;5041905;28;20044;-90
2022/08/19 00:54:44;;;;;;;25.20;20.67;;;;;;;16.47;100.00;101204.44;5040077;28;20044;-89
2022/08/19 00:57:14;;;;;;;22.80;20.27;;;;;;;16.51;100.00;101205.66;5042424;28;20041;-92
2022/08/19 00:59:41;;;;;;;22.70;20.27;;;;;;;16.43;100.00;101206.84;5040980;28;20079;-90
2022/08/19 01:02:08;;;;;;;22.77;20.20;;;;;;;16.42;100.00;101207.91;5042085;28;20037;-89
2022/08/19 01:04:34;;;;;;;22.33;18.83;;;;;;;16.37;100.00;101205.94;5040214;28;20106;-91
2022/08/19 01:07:01;;;;;;;22.30;18.67;;;;;;;16.40;100.00;101203.75;5041571;28;20631;-90
2022/08/19 01:09:26;;;;;;;20.67;17.70;;;;;;;16.35;100.00;101201.75;5040889;28;20040;-88
2022/08/19 01:11:52;;;;;;;23.23;20.43;;;;;;;16.33;100.00;101193.81;5043000;28;20393;-89
2022/08/19 01:14:19;;;;;;;25.63;20.63;;;;;;;16.33;100.00;101192.97;5038915;28;20401;-90
2022/08/19 01:16:46;;;;;;;21.40;18.97;;;;;;;16.31;100.00;101201.41;5040389;28;20033;-91
2022/08/19 01:19:46;;;;;;;20.73;18.40;;;;;;;16.38;100.00;101206.75;5039292;28;20044;-90
2022/08/19 01:22:36;;;;;;;25.07;20.43;;;;;;;16.32;100.00;101205.81;5020193;28;20555;-89
2022/08/19 01:25:02;;;;;;;21.90;18.90;;;;;;;16.23;100.00;101204.50;5041225;28;20416;-91
2022/08/19 01:27:40;;;;;;;22.43;19.43;;;;;;;16.20;100.00;101197.63;5040542;28;20603;-90
2022/08/19 01:30:07;;;;;;;23.80;19.40;;;;;;;16.14;100.00;101201.34;5040822;28;20028;-90
2022/08/19 01:32:33;;;;;;;23.40;20.10;;;;;;;16.19;100.00;101206.88;5041290;28;20144;-88
2022/08/19 01:35:01;;;;;;;25.80;22.53;;;;;;;16.16;100.00;101193.72;5039771;28;20551;-90
2022/08/19 01:37:27;;;;;;;26.43;22.57;;;;;;;16.18;100.00;101202.53;5039886;28;20059;-89
2022/08/19 01:39:53;;;;;;;25.50;22.77;;;;;;;16.16;100.00;101203.81;5040918;28;20592;-89
2022/08/19 01:42:19;;;;;;;26.97;22.80;;;;;;;16.16;100.00;101201.09;5041141;28;20041;-89
2022/08/19 01:44:45;;;;;;;26.97;23.37;;;;;;;16.07;100.00;101208.00;5040547;28;20047;-89
2022/08/19 01:47:10;;;;;;;26.53;23.20;;;;;;;16.11;100.00;101203.72;5040738;28;20036;-90
2022/08/19 01:49:36;;;;;;;28.33;23.87;;;;;;;16.09;100.00;101201.22;5040339;28;20067;-88
2022/08/19 01:52:03;;;;;;;34.37;27.30;;;;;;;16.21;100.00;101206.69;5039373;28;20033;-88
2022/08/19 01:54:29;;;;;;;30.93;26.03;;;;;;;16.13;100.00;101205.13;5040098;28;20548;-91
2022/08/19 01:57:06;;;;;;;31.70;25.60;;;;;;;16.12;100.00;101203.47;5041141;28;20041;-89
2022/08/19 01:59:32;;;;;;;32.80;27.13;;;;;;;16.12;100.00;101206.19;5040289;28;20029;-86
2022/08/19 02:01:58;;;;;;;34.33;27.67;;;;;;;16.11;100.00;101206.44;5040316;28;20037;-89
2022/08/19 02:04:25;;;;;;;39.83;31.50;;;;;;;16.18;100.00;101202.53;5039240;28;20399;-91
2022/08/19 02:06:50;;;;;;;34.73;27.27;;;;;;;16.12;100.00;101213.59;5040374;28;20040;-90
2022/08/19 02:09:16;;;;;;;36.37;29.80;;;;;;;16.14;100.00;101219.63;5040407;28;20036;-90
2022/08/19 02:11:42;;;;;;;37.70;28.87;;;;;;;16.10;100.00;101210.25;5040007;28;20045;-90
2022/08/19 02:14:08;;;;;;;38.77;29.30;;;;;;;16.11;100.00;101214.66;5040089;28;20502;-91
2022/08/19 02:16:34;;;;;;;36.03;28.13;;;;;;;16.05;100.00;101216.44;5039979;28;20401;-90
2022/08/19 02:19:02;;;;;;;35.93;27.37;;;;;;;16.01;100.00;101232.47;5040248;28;20384;-89
2022/08/19 02:21:29;;;;;;;34.10;26.70;;;;;;;15.99;100.00;101220.97;5040557;28;20134;-90
2022/08/19 02:23:55;;;;;;;33.27;26.83;;;;;;;15.93;100.00;101221.09;5040173;28;20029;-90
2022/08/19 02:26:21;;;;;;;33.97;24.77;;;;;;;15.84;100.00;101218.72;5040563;28;20259;-90
2022/08/19 02:28:48;;;;;;;33.77;25.63;;;;;;;15.91;100.00;101213.13;5040066;28;20040;-89
2022/08/19 02:31:17;;;;;;;33.37;26.47;;;;;;;15.88;100.00;101213.59;5040483;28;20032;-90
2022/08/19 02:33:43;;;;;;;31.83;25.67;;;;;;;15.88;100.00;101219.06;5053603;28;20057;-90
2022/08/19 02:36:10;;;;;;;37.43;27.07;;;;;;;15.88;100.00;101220.97;5039725;28;20091;-89
2022/08/19 02:38:36;;;;;;;35.47;28.30;;;;;;;15.89;100.00;101234.38;5038350;28;20047;-90
2022/08/19 02:41:06;;;;;;;33.70;25.73;;;;;;;15.85;100.00;101236.75;5039635;28;20116;-89
2022/08/19 02:43:36;;;;;;;33.00;25.83;;;;;;;15.82;100.00;101231.78;5039053;28;20064;-89
2022/08/19 02:46:02;;;;;;;32.53;25.93;;;;;;;15.79;100.00;101231.38;5040068;28;20056;-91
2022/08/19 02:48:28;;;;;;;34.17;26.03;;;;;;;15.78;100.00;101233.28;5043602;28;20040;-87
2022/08/19 02:50:56;;;;;;;34.07;25.07;;;;;;;15.77;100.00;101228.88;5044547;28;20045;-90
2022/08/19 02:53:23;;;;;;;31.10;25.47;;;;;;;15.70;100.00;101239.91;5044123;28;20561;-90
2022/08/19 02:55:50;;;;;;;29.90;23.73;;;;;;;15.76;100.00;101245.50;5042647;28;20509;-87
2022/08/19 02:58:16;;;;;;;30.60;24.63;;;;;;;15.72;100.00;101241.59;5044181;28;20118;-87
2022/08/19 03:00:48;;;;;;;29.33;23.00;;;;;;;15.67;100.00;101243.13;5044349;28;20092;-85
2022/08/19 03:03:15;;;;;;;31.90;25.50;;;;;;;15.72;100.00;101245.19;5043975;28;20032;-86
2022/08/19 03:05:41;;;;;;;28.83;21.47;;;;;;;15.73;100.00;101240.53;5042843;28;20036;-87
2022/08/19 03:08:08;;;;;;;27.73;21.50;;;;;;;15.66;100.00;101232.44;5044143;28;20602;-87
2022/08/19 03:10:40;;;;;;;30.20;23.40;;;;;;;15.70;100.00;101239.91;5042665;28;20043;-87
2022/08/19 03:13:05;;;;;;;30.07;23.47;;;;;;;15.66;100.00;101236.00;5058209;28;20056;-87
2022/08/19 03:15:30;;;;;;;31.47;24.60;;;;;;;15.69;100.00;101226.50;5041175;28;20139;-87
2022/08/19 03:17:56;;;;;;;30.63;22.50;;;;;;;15.56;100.00;101235.78;5043648;28;20594;-88
2022/08/19 03:20:21;;;;;;;36.17;28.07;;;;;;;15.70;100.00;101229.00;5042797;28;20040;-87
2022/08/19 03:22:46;;;;;;;41.57;32.07;;;;;;;15.76;100.00;101224.50;5043667;28;20040;-86
2022/08/19 03:25:12;;;;;;;44.50;34.13;;;;;;;15.85;100.00;101235.94;5043147;28;20041;-87
2022/08/19 03:27:37;;;;;;;44.03;35.57;;;;;;;15.87;100.00;101236.53;5043670;28;20166;-89
2022/08/19 03:30:04;;;;;;;39.60;32.00;;;;;;;15.84;100.00;101235.09;5043684;28;20036;-89
2022/08/19 03:32:29;;;;;;;38.07;30.00;;;;;;;15.81;100.00;101229.28;5041663;28;20056;-89
2022/08/19 03:34:54;;;;;;;33.53;26.83;;;;;;;15.74;100.00;101234.00;5022959;28;20051;-86
2022/08/19 03:37:20;;;;;;;35.07;28.43;;;;;;;15.76;100.00;101238.16;5042764;28;20974;-89
2022/08/19 03:39:45;;;;;;;33.73;28.37;;;;;;;15.69;100.00;101232.81;5043239;28;20511;-89
2022/08/19 03:42:11;;;;;;;34.40;29.20;;;;;;;15.70;100.00;101239.09;5042634;28;20045;-89
2022/08/19 03:44:37;;;;;;;36.40;29.43;;;;;;;15.72;100.00;101238.84;5042352;28;20045;-90
2022/08/19 03:47:04;;;;;;;32.70;26.60;;;;;;;15.65;100.00;101231.63;5041325;28;20615;-90
2022/08/19 03:49:32;;;;;;;34.23;28.80;;;;;;;15.68;100.00;101216.66;5042689;28;20115;-88
2022/08/19 03:52:00;;;;;;;37.50;31.83;;;;;;;15.78;100.00;101221.53;5043488;28;20029;-89
2022/08/19 03:54:26;;;;;;;33.80;26.87;;;;;;;15.57;100.00;101228.41;5042177;28;20103;-89
2022/08/19 03:56:54;;;;;;;33.07;27.20;;;;;;;15.62;100.00;101228.53;5042543;28;20535;-88
2022/08/19 03:59:25;;;;;;;32.13;26.53;;;;;;;15.52;100.00;101223.66;5040513;28;20397;-88
2022/08/19 04:01:53;;;;;;;34.90;27.33;;;;;;;15.55;100.00;101228.63;5042358;28;20086;-88
2022/08/19 04:04:19;;;;;;;32.77;27.00;;;;;;;15.51;100.00;101219.25;5042420;28;20048;-88
2022/08/19 04:06:46;;;;;;;32.37;27.53;;;;;;;15.47;100.00;101220.78;5042138;28;20044;-89
2022/08/19 04:09:12;;;;;;;32.03;26.77;;;;;;;15.45;100.00;101233.84;5042927;28;20044;-89
2022/08/19 04:11:44;;;;;;;31.23;26.63;;;;;;;15.47;100.00;101238.00;5042475;28;20045;-89
2022/08/19 04:14:15;;;;;;;33.03;27.33;;;;;;;15.49;100.00;101229.56;5058003;28;21441;-88
2022/08/19 04:16:42;;;;;;;32.77;26.90;;;;;;;15.49;100.00;101226.84;5041866;28;20673;-90
2022/08/19 04:19:07;;;;;;;32.27;25.03;;;;;;;15.42;100.00;101226.13;5042314;28;20040;-88
2022/08/19 04:21:58;;;;;;;30.03;24.27;;;;;;;15.42;100.00;101229.69;5042519;28;20029;-88
2022/08/19 04:24:24;;;;;;;33.27;26.70;;;;;;;15.36;100.00;101233.34;5041983;28;20036;-88
2022/08/19 04:26:50;;;;;;;27.73;23.43;;;;;;;15.39;100.00;101237.50;5041430;28;20076;-90
2022/08/19 04:29:24;;;;;;;29.27;23.93;;;;;;;15.33;100.00;101226.47;5040151;28;20474;-88
2022/08/19 04:31:51;;;;;;;29.60;24.35;;;;;;;15.31;100.00;101231.34;5041162;28;20029;-88
2022/08/19 04:34:21;;;;;;;30.73;25.40;;;;;;;15.31;100.00;101225.88;5039562;28;20090;-88
2022/08/19 04:36:47;;;;;;;27.30;23.27;;;;;;;15.31;100.00;101225.03;5040943;28;20165;-88
2022/08/19 04:39:17;;;;;;;28.10;23.17;;;;;;;15.27;100.00;101224.69;5022867;28;20157;-89
2022/08/19 04:44:30;;;;;;;26.97;23.90;;;;;;;15.19;100.00;101227.75;5042271;28;20515;-89
2022/08/19 04:46:56;;;;;;;29.10;24.00;;;;;;;15.22;100.00;101224.53;5040813;28;20037;-89
2022/08/19 04:49:22;;;;;;;28.87;23.07;;;;;;;15.12;100.00;101222.41;5042146;28;20083;-89
2022/08/19 04:51:49;;;;;;;26.87;22.37;;;;;;;15.11;100.00;101219.88;5042854;28;20493;-89
2022/08/19 04:54:17;;;;;;;31.27;25.40;;;;;;;15.07;100.00;101213.22;5041405;28;20040;-89
2022/08/19 04:56:43;;;;;;;32.27;25.87;;;;;;;15.13;100.00;101223.22;5041627;28;20039;-89
2022/08/19 04:59:10;;;;;;;30.93;25.87;;;;;;;15.14;100.00;101231.16;5041532;28;20040;-88
2022/08/19 05:01:36;;;;;;;32.17;25.97;;;;;;;15.13;100.00;101217.75;5040342;28;20071;-89
2022/08/19 05:04:04;;;;;;;36.83;30.00;;;;;;;15.23;100.00;101241.75;5042251;28;20115;-88
2022/08/19 05:06:33;;;;;;;39.90;31.83;;;;;;;15.21;100.00;101247.44;5040363;28;20037;-88
2022/08/19 05:09:00;;;;;;;34.97;28.20;;;;;;;15.25;100.00;101247.81;5041956;28;20033;-89
2022/08/19 05:11:28;;;;;;;41.13;33.07;;;;;;;15.25;100.00;101247.81;5040589;28;20111;-88
2022/08/19 05:13:55;;;;;;;43.30;34.10;;;;;;;15.35;100.00;101254.38;5041500;28;20611;-87
2022/08/19 05:16:27;;;;;;;75.27;50.10;;;;;;;15.54;100.00;101251.53;5041370;28;20037;-87
2022/08/19 05:24:26;;;;;;;83.13;53.93;;;;;;;15.77;100.00;101258.94;5041057;28;20056;-87
2022/08/19 05:26:56;;;;;;;93.80;58.47;;;;;;;15.83;100.00;101254.47;5041085;28;20507;-86
2022/08/19 05:29:23;;;;;;;89.17;57.40;;;;;;;15.94;100.00;101267.31;5041015;28;20056;-87
2022/08/19 05:31:49;;;;;;;85.40;54.63;;;;;;;16.00;100.00;101270.97;5040374;28;20032;-86
2022/08/19 05:34:16;;;;;;;80.90;54.03;;;;;;;16.03;100.00;101276.81;5040312;28;20120;-85
2022/08/19 05:36:44;;;;;;;76.37;54.10;;;;;;;16.07;100.00;101274.41;5041096;28;20480;-86
2022/08/19 05:39:15;;;;;;;74.27;50.43;;;;;;;16.13;100.00;101272.63;5041386;28;20039;-86
2022/08/19 05:41:49;;;;;;;71.67;51.83;;;;;;;16.19;100.00;101285.34;5040977;28;21771;-87
2022/08/19 05:44:16;;;;;;;70.10;50.05;;;;;;;16.15;100.00;101282.25;5040759;28;20523;-85
2022/08/19 05:46:46;;;;;;;72.60;50.13;;;;;;;16.21;100.00;101283.22;5040394;28;20067;-85
2022/08/19 05:49:12;;;;;;;69.77;50.47;;;;;;;16.23;100.00;101288.44;5041233;28;20109;-85
2022/08/19 05:51:38;;;;;;;72.70;50.33;;;;;;;16.26;100.00;101279.75;5040339;28;20041;-84
2022/08/19 05:54:06;;;;;;;66.60;49.33;;;;;;;16.22;100.00;101279.41;5056552;28;20477;-83
2022/08/19 05:56:34;;;;;;;70.47;50.87;;;;;;;16.24;100.00;101279.16;5041202;28;20036;-83
2022/08/19 05:59:00;;;;;;;71.57;51.73;;;;;;;16.24;100.00;101281.88;5041696;28;20071;-83
2022/08/19 06:01:26;;;;;;;69.43;51.17;;;;;;;16.29;100.00;101280.13;5041112;28;20645;-84
2022/08/19 06:03:52;;;;;;;72.63;51.67;;;;;;;16.31;100.00;101272.50;5040536;28;20047;-82
2022/08/19 06:06:18;;;;;;;67.60;49.67;;;;;;;16.34;100.00;101265.72;5039665;28;20036;-83
2022/08/19 06:08:50;;;;;;;69.47;52.10;;;;;;;16.36;100.00;101264.41;5054520;28;20114;-83
2022/08/19 06:11:35;;;;;;;72.47;52.37;;;;;;;16.42;100.00;101259.06;5039918;28;20159;-83
2022/08/19 06:14:10;;;;;;;72.80;50.80;;;;;;;16.43;100.00;101260.69;5040602;28;20075;-84
2022/08/19 06:16:38;;;;;;;69.70;51.00;;;;;;;16.50;100.00;101258.69;5039224;28;20075;-85
2022/08/19 06:19:07;;;;;;;66.50;49.50;;;;;;;16.58;100.00;101265.66;5036202;28;20437;-83
2022/08/19 06:21:36;;;;;;;67.97;49.63;;;;;;;16.56;100.00;101254.97;5035643;28;20032;-84
2022/08/19 06:24:28;;;;;;;67.30;49.53;;;;;;;16.69;100.00;101265.63;5037907;28;20279;-84
2022/08/19 06:26:55;;;;;;;63.90;47.77;;;;;;;16.74;100.00;101270.41;5037352;28;20033;-82
2022/08/19 06:29:24;;;;;;;65.63;47.07;;;;;;;16.77;100.00;101264.44;5038582;28;20043;-83
2022/08/19 06:31:53;;;;;;;67.23;48.73;;;;;;;16.84;100.00;101267.03;5038695;28;20052;-84
2022/08/19 06:34:19;;;;;;;63.17;45.73;;;;;;;16.95;100.00;101265.34;5037610;28;20060;-85
2022/08/19 06:36:48;;;;;;;66.07;48.03;;;;;;;16.95;100.00;101260.69;5037915;28;20054;-84
2022/08/19 06:39:18;;;;;;;60.90;44.80;;;;;;;17.03;100.00;101260.31;5036977;28;20035;-85
2022/08/19 06:41:46;;;;;;;63.17;45.63;;;;;;;17.18;100.00;101261.69;5037811;28;20037;-82
2022/08/19 06:44:12;;;;;;;64.83;46.10;;;;;;;17.27;100.00;101260.22;5038038;28;20029;-86
2022/08/19 06:46:39;;;;;;;57.93;44.43;;;;;;;17.30;100.00;101256.13;5037962;28;20388;-83
2022/08/19 06:49:04;;;;;;;57.83;44.50;;;;;;;17.36;100.00;101258.69;5037773;28;20477;-83
2022/08/19 06:51:32;;;;;;;59.57;43.07;;;;;;;17.47;100.00;101267.09;5037564;28;20150;-87
2022/08/19 06:53:58;;;;;;;61.10;43.83;;;;;;;17.59;100.00;101275.25;5037244;28;20526;-85
2022/08/19 06:56:33;;;;;;;60.23;43.37;;;;;;;17.58;100.00;101279.06;5035218;28;20044;-82
2022/08/19 06:59:07;;;;;;;57.43;42.67;;;;;;;17.60;100.00;101276.91;5037840;28;20166;-85
2022/08/19 07:01:40;;;;;;;53.22;41.38;;;;;;;17.69;100.00;101281.75;5037862;28;20094;-84
2022/08/19 07:04:08;;;;;;;56.03;42.50;;;;;;;17.75;100.00;101277.16;5038476;28;21987;-84
2022/08/19 07:06:35;;;;;;;55.63;41.73;;;;;;;17.85;100.00;101268.25;5037053;28;20482;-85
2022/08/19 07:09:01;;;;;;;56.63;43.27;;;;;;;17.97;100.00;101270.97;5037533;28;20051;-85
2022/08/19 07:11:27;;;;;;;56.60;41.43;;;;;;;18.04;100.00;101272.41;5035710;28;20029;-86
2022/08/19 07:13:52;;;;;;;53.27;41.17;;;;;;;18.08;100.00;101277.41;5037656;28;20044;-85
2022/08/19 07:16:19;;;;;;;55.45;41.85;;;;;;;18.19;100.00;101274.56;5036216;28;20076;-85
2022/08/19 07:18:49;;;;;;;54.33;41.33;;;;;;;18.37;100.00;101280.84;5037349;28;20777;-84
2022/08/19 07:21:17;;;;;;;54.83;40.88;;;;;;;18.45;100.00;101288.63;5036760;28;20032;-83
2022/08/19 07:23:44;;;;;;;55.00;41.03;;;;;;;18.45;100.00;101287.81;5037511;28;20124;-82
2022/08/19 07:26:23;;;;;;;54.83;40.50;;;;;;;18.55;100.00;101298.94;5054699;28;20037;-84
2022/08/19 07:28:49;;;;;;;55.85;42.08;;;;;;;18.55;99.74;101299.75;5038712;28;20045;-83
2022/08/19 07:31:19;;;;;;;55.53;41.78;;;;;;;18.63;98.29;101301.22;5037924;28;20056;-84
2022/08/19 07:33:46;;;;;;;55.17;40.90;;;;;;;18.70;97.78;101296.38;5040491;28;20036;-85
2022/08/19 07:36:16;;;;;;;58.28;42.60;;;;;;;18.76;98.59;101301.94;5042113;28;20044;-84
2022/08/19 07:38:44;;;;;;;55.53;44.92;;;;;;;18.78;98.50;101299.75;5042876;28;20043;-82
2022/08/19 07:41:12;;;;;;;60.33;47.38;;;;;;;18.72;97.42;101287.88;5042805;28;20132;-84
2022/08/19 07:43:38;;;;;;;61.50;45.95;;;;;;;18.81;98.30;101296.50;5043543;28;20045;-85
2022/08/19 07:46:04;;;;;;;58.25;45.42;;;;;;;18.67;97.45;101305.13;5044016;28;20036;-83
2022/08/19 07:48:30;;;;;;;58.05;44.55;;;;;;;18.68;97.59;101304.00;5042413;28;20049;-84
2022/08/19 07:50:59;;;;;;;57.92;45.20;;;;;;;18.73;98.37;101311.50;5041754;28;20537;-82
2022/08/19 07:53:24;;;;;;;56.35;45.00;;;;;;;18.77;98.25;101311.81;5042218;28;20044;-82
2022/08/19 07:55:51;;;;;;;58.40;42.35;;;;;;;18.81;97.99;101315.72;5044012;28;20040;-84
2022/08/19 07:58:18;;;;;;;55.30;40.22;;;;;;;18.90;96.88;101325.16;5043711;28;20045;-83
2022/08/19 08:00:46;;;;;;;50.05;38.42;;;;;;;19.00;96.24;101328.06;5043590;28;20045;-84
2022/08/19 08:03:12;;;;;;;55.63;40.50;;;;;;;18.91;95.96;101320.53;5043301;28;20119;-82
2022/08/19 08:10:57;;;;;;;60.05;42.33;;;;;;;18.95;96.30;101325.25;5043298;28;20051;-84
2022/08/19 08:13:22;;;;;;;48.50;36.38;;;;;;;19.00;95.31;101324.50;5042197;28;20025;-84
2022/08/19 08:15:48;;;;;;;50.38;37.42;;;;;;;19.00;94.52;101322.56;5042631;28;20057;-85
2022/08/19 08:18:20;;;;;;;51.83;38.30;;;;;;;18.94;96.35;101323.56;5042780;28;20055;-80
2022/08/19 08:20:46;;;;;;;50.45;38.85;;;;;;;18.98;96.08;101341.19;5043481;28;20036;-83
2022/08/19 08:23:26;;;;;;;48.60;38.50;;;;;;;18.92;96.12;101335.91;5043916;28;20129;-83
2022/08/19 08:25:55;;;;;;;49.08;37.67;;;;;;;18.94;96.08;101334.56;5042160;28;20481;-82
2022/08/19 08:28:22;;;;;;;51.60;38.58;;;;;;;18.99;95.63;101342.88;5043454;28;20024;-83
2022/08/19 08:30:49;;;;;;;50.38;38.80;;;;;;;19.01;95.61;101346.19;5043900;28;20036;-83
2022/08/19 08:33:21;;;;;;;50.25;38.35;;;;;;;19.00;95.91;101358.25;5042785;28;20098;-82
2022/08/19 08:35:47;;;;;;;48.40;36.35;;;;;;;18.96;95.01;101348.88;5042863;28;20032;-82
2022/08/19 08:38:14;;;;;;;42.80;34.67;;;;;;;18.95;94.99;101355.44;5041388;28;20115;-85
2022/08/19 08:41:06;;;;;;;47.85;37.35;;;;;;;18.96;95.99;101359.84;5043527;28;20076;-81
2022/08/19 08:43:43;;;;;;;48.80;37.42;;;;;;;19.09;95.77;101364.13;5042878;28;20036;-82
2022/08/19 08:46:12;;;;;;;46.53;37.92;;;;;;;19.15;95.73;101367.78;5042681;28;20056;-82
2022/08/19 08:49:20;;;;;;;49.88;39.90;;;;;;;19.26;95.80;101366.81;5042476;28;20457;-82
2022/08/19 08:52:00;;;;;;;50.60;40.53;;;;;;;19.28;96.13;101372.84;5041910;28;20045;-82
2022/08/19 08:54:31;;;;;;;53.20;43.10;;;;;;;19.21;95.18;101373.03;5057768;28;20037;-83
2022/08/19 08:56:57;;;;;;;48.83;38.50;;;;;;;19.24;94.84;101371.72;5043034;28;20033;-82
2022/08/19 08:59:27;;;;;;;47.58;39.78;;;;;;;19.21;94.82;101361.25;5040316;28;20051;-83
2022/08/19 09:01:53;;;;;;;45.65;37.88;;;;;;;19.39;95.24;101371.03;5043176;28;20052;-82
2022/08/19 09:04:19;;;;;;;49.60;39.95;;;;;;;19.27;93.84;101364.88;5042327;28;20484;-82
2022/08/19 09:07:15;;;;;;;50.88;40.08;;;;;;;19.31;93.95;101363.25;5041099;28;20040;-86
2022/08/19 09:09:45;;;;;;;49.40;38.95;;;;;;;19.35;94.66;101365.25;5041354;28;20488;-85
2022/08/19 09:12:38;;;;;;;49.30;40.15;;;;;;;19.54;94.81;101362.13;5042542;28;20138;-88
2022/08/19 09:15:08;;;;;;;46.00;37.70;;;;;;;19.81;91.72;101355.81;5041837;28;20553;-85
2022/08/19 09:17:34;;;;;;;47.10;38.90;;;;;;;20.02;91.89;101359.59;5039305;28;20530;-86
2022/08/19 09:20:20;;;;;;;45.15;34.92;;;;;;;20.23;90.64;101357.81;5040531;28;20037;-84
2022/08/19 09:22:46;;;;;;;42.78;35.17;;;;;;;20.30;89.68;101361.16;5041962;28;20035;-85
2022/08/19 09:25:15;;;;;;;41.72;34.92;;;;;;;20.27;87.31;101367.19;5041882;28;20039;-87
2022/08/19 09:27:44;;;;;;;40.22;34.10;;;;;;;20.24;87.09;101370.47;5039996;28;20040;-88
2022/08/19 09:30:17;;;;;;;42.53;34.80;;;;;;;20.20;87.95;101372.91;5040921;28;20045;-83
2022/08/19 09:32:43;;;;;;;43.87;36.07;;;;;;;20.11;87.98;101373.66;5040737;28;20079;-87
2022/08/19 09:35:10;;;;;;;43.03;36.53;;;;;;;20.14;88.35;101373.13;5040965;28;20049;-86
2022/08/19 09:37:36;;;;;;;44.92;36.15;;;;;;;20.11;88.94;101368.16;5041693;28;20059;-85
2022/08/19 09:40:02;;;;;;;41.92;36.85;;;;;;;20.04;89.37;101371.97;5040605;28;20463;-84
2022/08/19 09:42:27;;;;;;;42.10;36.92;;;;;;;20.01;89.25;101375.25;5041037;28;20056;-84
2022/08/19 09:44:52;;;;;;;46.80;38.53;;;;;;;19.90;89.02;101379.00;5040719;28;20055;-87
2022/08/19 09:47:18;;;;;;;42.25;35.72;;;;;;;19.81;89.02;101380.56;5042187;28;20060;-90
2022/08/19 09:49:43;;;;;;;45.53;36.70;;;;;;;19.84;89.26;101385.53;5041370;28;20088;-85
2022/08/19 09:52:10;;;;;;;45.13;36.38;;;;;;;19.85;89.01;101381.72;5041264;28;21637;-86
2022/08/19 09:54:36;;;;;;;46.40;36.10;;;;;;;19.94;89.06;101380.13;5040457;28;20056;-85
2022/08/19 09:57:02;;;;;;;47.88;37.30;;;;;;;19.97;88.84;101389.78;5039303;28;20112;-84
2022/08/19 09:59:28;;;;;;;42.78;35.83;;;;;;;19.97;88.54;101398.84;5040714;28;20052;-87
2022/08/19 10:01:54;;;;;;;48.58;37.72;;;;;;;20.07;88.29;101385.22;5039851;28;20110;-88
2022/08/19 10:04:20;;;;;;;44.00;36.90;;;;;;;20.08;88.50;101386.03;5040489;28;20130;-87
2022/08/19 10:06:47;;;;;;;44.95;38.00;;;;;;;20.14;88.21;101389.63;5039955;28;20554;-88
2022/08/19 10:09:16;;;;;;;46.08;37.28;;;;;;;20.25;87.89;101396.91;5041420;28;20060;-89
2022/08/19 10:11:46;;;;;;;45.05;37.70;;;;;;;20.29;86.98;101386.19;5041593;28;20346;-86
2022/08/19 10:14:11;;;;;;;44.35;37.03;;;;;;;20.42;86.88;101386.53;5041857;28;20048;-85
2022/08/19 10:16:39;;;;;;;45.72;36.80;;;;;;;20.57;84.85;101388.56;5041399;28;20072;-87
2022/08/19 10:19:04;;;;;;;46.95;37.92;;;;;;;20.78;86.17;101377.72;5039314;28;20480;-87
2022/08/19 10:21:32;;;;;;;49.30;38.17;;;;;;;20.89;84.23;101379.41;5023542;28;20408;-87
2022/08/19 10:24:01;;;;;;;46.10;39.72;;;;;;;21.03;83.94;101389.94;5041247;28;20037;-88
2022/08/19 10:26:30;;;;;;;48.45;40.05;;;;;;;21.06;82.95;101389.41;5039019;28;20597;-86
2022/08/19 10:28:56;;;;;;;46.20;37.13;;;;;;;21.13;83.00;101373.44;5039705;28;20044;-86
2022/08/19 10:31:25;;;;;;;42.90;37.53;;;;;;;21.19;82.39;101377.06;5041552;28;20153;-87
2022/08/19 10:33:57;;;;;;;46.33;38.40;;;;;;;21.18;82.01;101381.72;5041565;28;20124;-86
2022/08/19 10:36:25;;;;;;;44.55;36.25;;;;;;;21.19;82.29;101374.31;5025967;28;20452;-85
2022/08/19 10:38:56;;;;;;;42.55;36.17;;;;;;;21.17;80.82;101373.72;5039545;28;20090;-88
2022/08/19 10:41:23;;;;;;;40.90;33.13;;;;;;;20.98;80.44;101381.66;5041493;28;21238;-88
2022/08/19 10:43:54;;;;;;;35.47;30.10;;;;;;;21.06;80.89;101383.88;5039509;28;20136;-87
2022/08/19 10:46:22;;;;;;;36.90;29.88;;;;;;;20.99;81.76;101383.31;5038858;28;21140;-87
2022/08/19 10:48:48;;;;;;;40.80;32.63;;;;;;;20.89;81.46;101384.91;5041019;28;20089;-86
2022/08/19 10:53:59;;;;;;;36.78;32.78;;;;;;;20.79;81.22;101378.53;5040991;28;20044;-87
2022/08/19 10:59:19;;;;;;;46.03;35.20;;;;;;;20.67;82.76;101379.56;5031152;28;21515;-85
2022/08/19 11:01:46;;;;;;;42.22;33.50;;;;;;;20.67;82.36;101374.06;5040664;28;20036;-86
2022/08/19 11:04:33;;;;;;;40.17;33.33;;;;;;;20.74;83.09;101376.59;5041128;28;20156;-87
2022/08/19 11:06:58;;;;;;;39.42;34.67;;;;;;;20.82;83.12;101372.47;5040695;28;20032;-85
2022/08/19 11:09:27;;;;;;;41.33;34.35;;;;;;;20.92;82.40;101361.53;5059440;28;20815;-86
2022/08/19 11:11:53;;;;;;;41.70;34.95;;;;;;;21.00;82.62;101372.03;5045176;28;20045;-85
2022/08/19 11:14:20;;;;;;;41.67;35.15;;;;;;;21.11;81.25;101355.53;5043943;28;20585;-86
2022/08/19 11:16:48;;;;;;;40.67;34.10;;;;;;;21.14;81.85;101366.03;5044436;28;20041;-89
2022/08/19 11:19:16;;;;;;;42.80;34.90;;;;;;;21.22;81.20;101358.03;5059562;28;20702;-86
2022/08/19 11:21:44;;;;;;;39.22;32.72;;;;;;;21.33;78.89;101364.41;5043053;28;20037;-88
2022/08/19 11:24:12;;;;;;;38.65;32.80;;;;;;;21.43;78.49;101366.34;5058312;28;20404;-86
2022/08/19 11:26:39;;;;;;;40.97;33.63;;;;;;;21.49;78.20;101370.78;5044372;28;20032;-86
2022/08/19 11:29:06;;;;;;;38.50;31.02;;;;;;;21.50;77.23;101366.09;5043790;28;21394;-87